createdAt,value
2022-10-12T00:01:43.504Z,102521.50
2022-10-12T00:04:10.028Z,102525.09
2022-10-12T00:06:36.549Z,102524.28
2022-10-12T00:09:03.278Z,102524.06
2022-10-12T00:11:30.100Z,102528.19
2022-10-12T00:13:58.432Z,102529.41
2022-10-12T00:16:26.374Z,102529.06
2022-10-12T00:18:54.974Z,102511.22
2022-10-12T00:21:22.226Z,102524.78
2022-10-12T00:23:49.296Z,102509.31
2022-10-12T00:26:18.719Z,102509.94
2022-10-12T00:28:45.755Z,102510.75
2022-10-12T00:31:15.934Z,102517.75
2022-10-12T00:33:42.491Z,102515.63
2022-10-12T00:36:15.176Z,102516.03
2022-10-12T00:38:41.799Z,102515.63
2022-10-12T00:41:08.298Z,102508.41
2022-10-12T00:43:41.797Z,102513.59
2022-10-12T00:46:18.307Z,102511.41
2022-10-12T00:48:48.370Z,102517.59
2022-10-12T00:51:16.731Z,102521.31
2022-10-12T00:53:48.209Z,102516.47
2022-10-12T00:56:22.172Z,102515.75
2022-10-12T00:58:50.042Z,102512.69
2022-10-12T01:01:17.830Z,102514.28
2022-10-12T01:03:44.806Z,102513.50
2022-10-12T01:06:11.856Z,102503.78
2022-10-12T01:08:38.844Z,102513.50
2022-10-12T01:11:05.516Z,102513.53
2022-10-12T01:13:32.642Z,102515.34
2022-10-12T01:16:53.439Z,102510.69
2022-10-12T01:19:47.845Z,102506.59
2022-10-12T01:22:19.125Z,102504.09
2022-10-12T01:25:17.592Z,102504.97
2022-10-12T01:28:02.443Z,102497.47
2022-10-12T01:30:36.428Z,102492.50
2022-10-12T01:33:19.477Z,102498.66
2022-10-12T01:35:58.489Z,102496.25
2022-10-12T01:38:43.318Z,102501.75
2022-10-12T01:41:52.379Z,102500.31
2022-10-12T01:44:23.565Z,102490.16
2022-10-12T01:46:52.049Z,102483.25
2022-10-12T01:49:23.711Z,102490.97
2022-10-12T01:51:59.016Z,102490.78
2022-10-12T01:54:49.334Z,102491.97
2022-10-12T01:57:49.969Z,102488.63
2022-10-12T02:00:17.853Z,102489.44
2022-10-12T02:03:10.648Z,102480.59
2022-10-12T02:05:46.243Z,102476.34
2022-10-12T02:08:34.356Z,102463.13
2022-10-12T02:11:07.462Z,102477.56
2022-10-12T02:13:38.605Z,102468.22
2022-10-12T02:16:10.479Z,102464.94
2022-10-12T02:18:42.579Z,102460.88
2022-10-12T02:21:11.540Z,102462.91
2022-10-12T02:23:39.023Z,102467.09
2022-10-12T02:26:07.982Z,102461.59
2022-10-12T02:28:37.126Z,102461.72
2022-10-12T02:31:12.877Z,102453.06
2022-10-12T02:33:46.899Z,102456.19
2022-10-12T02:36:20.525Z,102442.16
2022-10-12T02:39:28.502Z,102452.13
2022-10-12T02:42:05.282Z,102444.50
2022-10-12T02:44:35.358Z,102442.38
2022-10-12T02:47:04.472Z,102438.09
2022-10-12T02:49:34.030Z,102438.09
2022-10-12T02:52:03.801Z,102437.31
2022-10-12T02:54:31.097Z,102436.66
2022-10-12T02:56:57.592Z,102438.72
2022-10-12T02:59:24.223Z,102442.56
2022-10-12T03:01:50.749Z,102432.44
2022-10-12T03:04:17.333Z,102416.34
2022-10-12T03:06:43.814Z,102425.69
2022-10-12T03:09:10.429Z,102421.50
2022-10-12T03:11:37.838Z,102424.53
2022-10-12T03:14:04.659Z,102434.41
2022-10-12T03:16:31.141Z,102421.19
2022-10-12T03:18:57.595Z,102427.25
2022-10-12T03:21:24.106Z,102434.38
2022-10-12T03:23:50.724Z,102427.03
2022-10-12T03:26:17.276Z,102426.53
2022-10-12T03:28:43.812Z,102423.78
2022-10-12T03:31:10.381Z,102425.13
2022-10-12T03:33:36.834Z,102433.50
2022-10-12T03:36:03.750Z,102428.91
2022-10-12T03:38:30.309Z,102436.06
2022-10-12T03:40:57.385Z,102418.19
2022-10-12T03:43:23.960Z,102429.38
2022-10-12T03:45:50.502Z,102425.41
2022-10-12T03:48:16.962Z,102424.00
2022-10-12T03:50:49.272Z,102422.75
2022-10-12T03:53:16.636Z,102416.50
2022-10-12T03:55:43.101Z,102414.56
2022-10-12T03:58:09.798Z,102415.41
2022-10-12T04:00:36.323Z,102419.22
2022-10-12T04:03:02.866Z,102407.59
2022-10-12T04:05:30.210Z,102409.44
2022-10-12T04:07:57.181Z,102405.03
2022-10-12T04:10:24.008Z,102398.34
2022-10-12T04:12:50.518Z,102398.69
2022-10-12T04:15:18.236Z,102413.09
2022-10-12T04:17:44.965Z,102418.63
2022-10-12T04:20:12.142Z,102416.03
2022-10-12T04:22:39.320Z,102415.84
2022-10-12T04:25:06.315Z,102412.03
2022-10-12T04:27:32.829Z,102407.97
2022-10-12T04:29:59.329Z,102412.19
2022-10-12T04:32:25.822Z,102405.16
2022-10-12T04:34:52.273Z,102402.66
2022-10-12T04:37:18.850Z,102402.41
2022-10-12T04:39:45.375Z,102399.31
2022-10-12T04:42:11.853Z,102404.47
2022-10-12T04:44:38.372Z,102390.78
2022-10-12T04:47:04.859Z,102394.22
2022-10-12T04:49:31.321Z,102399.78
2022-10-12T04:51:57.839Z,102398.16
2022-10-12T04:54:24.822Z,102396.28
2022-10-12T04:56:51.298Z,102394.84
2022-10-12T04:59:17.877Z,102397.09
2022-10-12T05:01:44.454Z,102396.03
2022-10-12T05:04:11.055Z,102396.56
2022-10-12T05:06:37.601Z,102390.44
2022-10-12T05:09:04.303Z,102376.38
2022-10-12T05:11:30.874Z,102386.38
2022-10-12T05:13:57.971Z,102379.13
2022-10-12T05:16:24.919Z,102384.13
2022-10-12T05:18:51.448Z,102391.41
2022-10-12T05:21:18.003Z,102391.22
2022-10-12T05:23:44.520Z,102372.97
2022-10-12T05:26:11.033Z,102379.09
2022-10-12T05:28:41.170Z,102382.03
2022-10-12T05:31:08.276Z,102378.38
2022-10-12T05:33:34.783Z,102371.94
2022-10-12T05:36:01.286Z,102381.53
2022-10-12T05:38:28.094Z,102381.16
2022-10-12T05:41:00.036Z,102367.25
2022-10-12T05:43:27.454Z,102374.91
2022-10-12T05:45:54.190Z,102384.56
2022-10-12T05:48:20.684Z,102381.50
2022-10-12T05:50:47.394Z,102384.72
2022-10-12T05:53:13.922Z,102375.28
2022-10-12T05:55:40.482Z,102384.59
2022-10-12T05:58:07.069Z,102374.41
2022-10-12T06:00:33.644Z,102379.00
2022-10-12T06:03:00.197Z,102380.50
2022-10-12T06:05:26.737Z,102377.19
2022-10-12T06:07:53.227Z,102374.88
2022-10-12T06:10:19.720Z,102368.59
2022-10-12T06:12:46.322Z,102372.44
2022-10-12T06:15:12.900Z,102376.72
2022-10-12T06:17:39.394Z,102376.72
2022-10-12T06:20:06.440Z,102377.44
2022-10-12T06:22:32.982Z,102367.19
2022-10-12T06:24:59.511Z,102369.91
2022-10-12T06:27:25.987Z,102374.34
2022-10-12T06:29:52.661Z,102363.38
2022-10-12T06:32:19.215Z,102375.50
2022-10-12T06:34:46.592Z,102377.84
2022-10-12T06:37:25.368Z,102372.06
2022-10-12T06:39:59.549Z,102379.47
2022-10-12T06:42:26.082Z,102382.31
2022-10-12T06:44:52.644Z,102377.13
2022-10-12T06:47:19.211Z,102380.69
2022-10-12T06:49:45.813Z,102371.53
2022-10-12T06:52:12.366Z,102376.41
2022-10-12T06:54:38.852Z,102373.34
2022-10-12T06:57:06.108Z,102373.47
2022-10-12T06:59:32.829Z,102374.47
2022-10-12T07:01:59.445Z,102357.22
2022-10-12T07:04:25.981Z,102371.13
2022-10-12T07:06:52.477Z,102361.81
2022-10-12T07:09:18.949Z,102366.56
2022-10-12T07:11:45.426Z,102365.97
2022-10-12T07:14:11.943Z,102366.47
2022-10-12T07:16:38.491Z,102359.72
2022-10-12T07:19:05.123Z,102347.94
2022-10-12T07:21:31.663Z,102358.41
2022-10-12T07:23:58.211Z,102353.75
2022-10-12T07:26:24.803Z,102350.44
2022-10-12T07:28:51.538Z,102357.09
2022-10-12T07:31:18.053Z,102358.00
2022-10-12T07:33:44.556Z,102354.94
2022-10-12T07:36:15.823Z,102355.34
2022-10-12T07:38:45.187Z,102349.81
2022-10-12T07:41:12.868Z,102339.97
2022-10-12T07:43:39.417Z,102324.63
2022-10-12T07:46:06.485Z,102316.63
2022-10-12T07:48:33.386Z,102302.28
2022-10-12T07:51:07.699Z,102309.34
2022-10-12T07:53:35.380Z,102323.84
2022-10-12T07:56:03.513Z,102323.75
2022-10-12T07:58:30.039Z,102313.69
2022-10-12T08:00:56.619Z,102302.66
2022-10-12T08:03:23.223Z,102309.25
2022-10-12T08:05:49.733Z,102305.44
2022-10-12T08:08:16.221Z,102311.97
2022-10-12T08:10:42.842Z,102325.69
2022-10-12T08:13:09.361Z,102332.78
2022-10-12T08:15:35.859Z,102336.03
2022-10-12T08:18:03.613Z,102350.50
2022-10-12T08:20:30.155Z,102346.88
2022-10-12T08:22:56.703Z,102346.44
2022-10-12T08:25:23.493Z,102356.00
2022-10-12T08:27:49.983Z,102348.00
2022-10-12T08:30:16.557Z,102343.91
2022-10-12T08:32:43.050Z,102341.38
2022-10-12T08:35:09.585Z,102341.53
2022-10-12T08:37:36.207Z,102331.88
2022-10-12T08:40:03.740Z,102330.50
2022-10-12T08:42:37.612Z,102332.91
2022-10-12T08:45:25.473Z,102336.22
2022-10-12T08:48:01.688Z,102334.47
2022-10-12T08:50:40.034Z,102342.38
2022-10-12T08:53:40.298Z,102343.59
2022-10-12T08:56:07.282Z,102335.38
2022-10-12T08:58:37.295Z,102330.47
2022-10-12T09:01:19.246Z,102302.28
2022-10-12T09:04:09.476Z,102293.03
2022-10-12T09:06:50.239Z,102275.28
2022-10-12T09:09:50.879Z,102271.00
2022-10-12T09:12:35.489Z,102284.97
2022-10-12T09:15:08.650Z,102287.28
2022-10-12T09:17:47.570Z,102295.25
2022-10-12T09:20:30.801Z,102304.84
2022-10-12T09:23:20.167Z,102301.84
2022-10-12T09:25:47.281Z,102304.63
2022-10-12T09:28:25.873Z,102300.78
2022-10-12T09:31:11.649Z,102309.00
2022-10-12T09:33:46.009Z,102305.19
2022-10-12T09:36:19.460Z,102298.44
2022-10-12T09:38:46.822Z,102314.03
2022-10-12T09:41:25.238Z,102305.16
2022-10-12T09:43:59.961Z,102301.88
2022-10-12T09:46:40.076Z,102295.22
2022-10-12T09:49:06.837Z,102294.69
2022-10-12T09:51:33.642Z,102281.00
2022-10-12T09:54:05.862Z,102286.47
2022-10-12T09:56:41.425Z,102288.69
2022-10-12T09:59:39.427Z,102274.56
2022-10-12T10:02:14.761Z,102278.81
2022-10-12T10:04:43.084Z,102282.78
2022-10-12T10:07:34.826Z,102272.28
2022-10-12T10:10:04.314Z,102264.84
2022-10-12T10:12:31.320Z,102279.34
2022-10-12T10:14:59.245Z,102274.91
2022-10-12T10:17:32.588Z,102269.59
2022-10-12T10:20:03.418Z,102259.22
2022-10-12T10:22:30.455Z,102242.94
2022-10-12T10:25:00.705Z,102238.03
2022-10-12T10:27:30.179Z,102230.03
2022-10-12T10:30:29.742Z,102218.09
2022-10-12T10:33:25.102Z,102221.31
2022-10-12T10:35:59.830Z,102211.38
2022-10-12T10:38:27.182Z,102215.72
2022-10-12T10:40:57.126Z,102199.97
2022-10-12T10:43:27.747Z,102211.53
2022-10-12T10:46:03.672Z,102207.72
2022-10-12T10:48:37.838Z,102200.53
2022-10-12T10:51:07.048Z,102216.44
2022-10-12T10:53:44.652Z,102211.53
2022-10-12T10:56:21.269Z,102199.31
2022-10-12T10:58:56.554Z,102199.88
2022-10-12T11:01:36.117Z,102198.78
2022-10-12T11:04:07.297Z,102193.06
2022-10-12T11:06:42.905Z,102199.31
2022-10-12T11:09:29.880Z,102192.19
2022-10-12T11:12:09.044Z,102191.47
2022-10-12T11:14:42.985Z,102200.25
2022-10-12T11:17:20.414Z,102190.84
2022-10-12T11:19:55.700Z,102195.97
2022-10-12T11:22:36.950Z,102196.97
2022-10-12T11:25:14.593Z,102189.19
2022-10-12T11:27:42.192Z,102178.06
2022-10-12T11:30:28.830Z,102183.03
2022-10-12T11:33:01.649Z,102179.84
2022-10-12T11:35:32.496Z,102177.50
2022-10-12T11:38:43.134Z,102180.66
2022-10-12T11:41:35.291Z,102159.06
2022-10-12T11:44:35.266Z,102171.19
2022-10-12T11:47:12.078Z,102168.94
2022-10-12T11:49:41.622Z,102170.50
2022-10-12T11:52:12.296Z,102171.91
2022-10-12T11:54:52.526Z,102157.50
2022-10-12T11:57:27.161Z,102157.66
2022-10-12T12:00:01.683Z,102157.09
2022-10-12T12:02:40.827Z,102149.28
2022-10-12T12:05:16.454Z,102157.31
2022-10-12T12:07:53.992Z,102153.69
2022-10-12T12:10:23.470Z,102148.81
2022-10-12T12:13:13.065Z,102143.59
2022-10-12T12:15:41.784Z,102144.00
2022-10-12T12:18:21.586Z,102149.13
2022-10-12T12:20:48.020Z,102141.78
2022-10-12T12:23:39.569Z,102140.31
2022-10-12T12:26:16.163Z,102128.72
2022-10-12T12:28:52.844Z,102123.03
2022-10-12T12:31:22.389Z,102130.69
2022-10-12T12:34:00.587Z,102128.97
2022-10-12T12:36:30.035Z,102127.47
2022-10-12T12:38:56.827Z,102129.88
2022-10-12T12:41:56.299Z,102125.50
2022-10-12T12:44:45.957Z,102120.25
2022-10-12T12:47:43.366Z,102117.69
2022-10-12T12:50:29.295Z,102125.38
2022-10-12T12:53:19.434Z,102120.47
2022-10-12T12:56:04.661Z,102111.97
2022-10-12T12:58:40.476Z,102117.94
2022-10-12T13:01:44.919Z,102116.06
2022-10-12T13:05:02.932Z,102118.84
2022-10-12T13:08:04.342Z,102121.78
2022-10-12T13:10:50.580Z,102129.88
2022-10-12T13:13:19.923Z,102111.03
2022-10-12T13:15:52.295Z,102110.13
2022-10-12T13:18:47.578Z,102109.63
2022-10-12T13:21:27.060Z,102090.44
2022-10-12T13:24:03.286Z,102090.44
2022-10-12T13:26:32.524Z,102095.91
2022-10-12T13:29:01.784Z,102102.53
2022-10-12T13:31:41.541Z,102111.66
2022-10-12T13:34:13.873Z,102117.50
2022-10-12T13:36:49.354Z,102106.97
2022-10-12T13:39:18.732Z,102102.50
2022-10-12T13:41:48.340Z,102093.94
2022-10-12T13:44:29.129Z,102089.72
2022-10-12T13:46:56.817Z,102092.16
2022-10-12T13:49:34.806Z,102098.13
2022-10-12T13:52:18.164Z,102091.81
2022-10-12T13:54:48.634Z,102099.09
2022-10-12T13:57:23.986Z,102084.38
2022-10-12T13:59:56.314Z,102075.69
2022-10-12T14:02:26.683Z,102057.06
2022-10-12T14:04:55.903Z,102063.88
2022-10-12T14:07:28.595Z,102049.63
2022-10-12T14:09:59.864Z,102043.72
2022-10-12T14:12:30.247Z,102056.66
2022-10-12T14:14:57.404Z,102046.78
2022-10-12T14:17:24.914Z,102038.06
2022-10-12T14:19:53.601Z,102039.56
2022-10-12T14:22:32.376Z,102038.19
2022-10-12T14:25:20.713Z,102032.44
2022-10-12T14:27:55.081Z,102029.63
2022-10-12T14:30:29.419Z,102013.66
2022-10-12T14:33:09.413Z,102025.69
2022-10-12T14:35:37.996Z,102026.72
2022-10-12T14:38:40.884Z,102014.13
2022-10-12T14:41:29.449Z,102004.53
2022-10-12T14:44:13.724Z,101994.97
2022-10-12T14:46:52.397Z,101998.94
2022-10-12T14:49:22.398Z,101990.66
2022-10-12T14:51:51.429Z,102001.66
2022-10-12T14:54:17.953Z,101988.41
2022-10-12T14:56:44.491Z,101981.84
2022-10-12T14:59:11.188Z,101994.31
2022-10-12T15:01:41.058Z,102001.63
2022-10-12T15:04:12.796Z,102004.09
2022-10-12T15:06:39.552Z,102000.75
2022-10-12T15:09:06.112Z,101998.22
2022-10-12T15:11:32.732Z,101995.13
2022-10-12T15:13:59.223Z,101999.81
2022-10-12T15:16:28.589Z,102002.31
2022-10-12T15:18:55.158Z,102008.88
2022-10-12T15:21:21.830Z,102003.91
2022-10-12T15:23:48.402Z,102002.75
2022-10-12T15:26:17.503Z,101998.63
2022-10-12T15:28:44.771Z,102004.97
2022-10-12T15:31:18.258Z,102007.72
2022-10-12T15:33:45.263Z,102001.38
2022-10-12T15:36:11.870Z,102009.31
2022-10-12T15:38:38.500Z,102011.84
2022-10-12T15:41:05.780Z,102007.25
2022-10-12T15:43:33.826Z,102000.50
2022-10-12T15:46:02.490Z,102006.59
2022-10-12T15:48:29.199Z,102017.06
2022-10-12T15:50:55.997Z,101996.31
2022-10-12T15:53:24.893Z,101990.81
2022-10-12T15:55:53.034Z,101992.81
2022-10-12T15:58:20.114Z,101993.69
2022-10-12T16:00:46.834Z,101999.13
2022-10-12T16:03:25.263Z,101985.44
2022-10-12T16:05:53.318Z,101985.97
2022-10-12T16:08:19.888Z,101996.22
2022-10-12T16:10:47.945Z,101989.78
2022-10-12T16:13:15.623Z,101985.81
2022-10-12T16:15:42.658Z,101987.94
2022-10-12T16:18:10.355Z,101987.16
2022-10-12T16:20:38.844Z,102000.13
2022-10-12T16:23:08.770Z,101997.59
2022-10-12T16:25:35.602Z,101994.56
2022-10-12T16:28:02.083Z,101990.09
2022-10-12T16:30:29.045Z,101992.22
2022-10-12T16:32:55.595Z,101984.38
2022-10-12T16:35:22.771Z,101993.72
2022-10-12T16:37:49.251Z,101987.00
2022-10-12T16:40:16.260Z,101991.53
2022-10-12T16:42:42.959Z,101983.59
2022-10-12T16:45:10.788Z,101984.81
2022-10-12T16:47:42.775Z,101988.09
2022-10-12T16:50:10.582Z,101994.22
2022-10-12T16:52:37.195Z,101987.66
2022-10-12T16:55:05.070Z,101987.59
2022-10-12T16:57:31.599Z,101998.88
2022-10-12T16:59:58.782Z,102006.47
2022-10-12T17:02:27.398Z,101995.50
2022-10-12T17:04:54.236Z,102003.56
2022-10-12T17:07:20.719Z,102013.09
2022-10-12T17:09:47.297Z,102006.19
2022-10-12T17:12:14.167Z,102012.19
2022-10-12T17:14:41.162Z,102013.34
2022-10-12T17:17:07.647Z,102019.53
2022-10-12T17:19:40.678Z,102023.69
2022-10-12T17:22:09.660Z,102019.41
2022-10-12T17:24:37.954Z,102016.84
2022-10-12T17:27:06.715Z,102019.25
2022-10-12T17:29:36.393Z,102023.28
2022-10-12T17:32:04.096Z,102024.97
2022-10-12T17:34:33.744Z,102028.00
2022-10-12T17:37:02.078Z,102024.78
2022-10-12T17:39:30.859Z,102015.59
2022-10-12T17:41:57.383Z,102025.41
2022-10-12T17:44:23.964Z,102029.53
2022-10-12T17:46:50.565Z,102034.00
2022-10-12T17:49:24.297Z,102035.53
2022-10-12T17:51:51.512Z,102034.78
2022-10-12T17:54:19.480Z,102028.06
2022-10-12T17:56:46.420Z,102038.91
2022-10-12T17:59:18.266Z,102028.63
2022-10-12T18:01:45.078Z,102037.84
2022-10-12T18:04:12.401Z,102020.59
2022-10-12T18:06:39.554Z,102030.31
2022-10-12T18:09:07.277Z,102017.38
2022-10-12T18:11:33.899Z,102025.50
2022-10-12T18:14:00.603Z,102015.84
2022-10-12T18:16:30.067Z,102012.66
2022-10-12T18:18:59.489Z,102008.78
2022-10-12T18:21:28.427Z,102012.06
2022-10-12T18:23:55.121Z,102014.06
2022-10-12T18:26:22.362Z,102002.78
2022-10-12T18:28:50.263Z,102008.53
2022-10-12T18:31:22.417Z,101999.94
2022-10-12T18:33:49.623Z,101994.47
2022-10-12T18:36:17.787Z,101999.75
2022-10-12T18:38:44.355Z,101992.69
2022-10-12T18:41:13.940Z,102002.19
2022-10-12T18:43:40.569Z,102000.38
2022-10-12T18:46:07.988Z,101997.88
2022-10-12T18:48:34.970Z,101996.28
2022-10-12T18:51:15.735Z,101998.88
2022-10-12T18:53:42.269Z,101993.78
2022-10-12T18:56:09.963Z,101988.94
2022-10-12T18:58:38.195Z,101988.94
2022-10-12T19:01:15.995Z,101988.94
2022-10-12T19:03:42.756Z,101991.16
2022-10-12T19:06:12.410Z,101989.56
2022-10-12T19:08:38.997Z,101994.41
2022-10-12T19:11:08.161Z,101991.69
2022-10-12T19:13:35.756Z,101995.47
2022-10-12T19:16:08.033Z,101981.16
2022-10-12T19:18:35.068Z,101984.47
2022-10-12T19:21:07.217Z,101982.16
2022-10-12T19:23:34.697Z,101979.94
2022-10-12T19:26:08.194Z,101971.31
2022-10-12T19:28:35.443Z,101978.28
2022-10-12T19:31:08.325Z,101974.38
2022-10-12T19:33:34.798Z,101969.72
2022-10-12T19:36:06.213Z,101964.09
2022-10-12T19:38:33.453Z,101957.22
2022-10-12T19:41:00.276Z,101962.56
2022-10-12T19:43:27.515Z,101957.72
2022-10-12T19:45:54.008Z,101953.00
2022-10-12T19:48:20.502Z,101957.72
2022-10-12T19:50:47.020Z,101953.97
2022-10-12T19:53:13.623Z,101955.34
2022-10-12T19:55:40.180Z,101944.34
2022-10-12T19:58:07.590Z,101957.22
2022-10-12T20:00:35.955Z,101961.75
2022-10-12T20:03:05.385Z,101959.38
2022-10-12T20:05:31.871Z,101965.28
2022-10-12T20:07:58.378Z,101962.03
2022-10-12T20:10:25.022Z,101968.75
2022-10-12T20:12:51.648Z,101973.13
2022-10-12T20:15:18.275Z,101965.06
2022-10-12T20:17:44.832Z,101966.78
2022-10-12T20:20:11.483Z,101965.16
2022-10-12T20:22:38.195Z,101960.53
2022-10-12T20:25:09.330Z,101960.78
2022-10-12T20:27:36.620Z,101967.38
2022-10-12T20:30:04.332Z,101969.91
2022-10-12T20:32:30.907Z,101961.88
2022-10-12T20:34:57.426Z,101968.81
2022-10-12T20:37:23.966Z,101955.53
2022-10-12T20:39:51.730Z,101945.69
2022-10-12T20:42:21.889Z,101949.25
2022-10-12T20:44:49.083Z,101944.63
2022-10-12T20:47:15.902Z,101948.81
2022-10-12T20:49:42.494Z,101951.81
2022-10-12T20:52:09.668Z,101959.50
2022-10-12T20:54:37.190Z,101963.59
2022-10-12T20:57:04.887Z,101961.94
2022-10-12T20:59:34.421Z,101957.56
2022-10-12T21:02:00.965Z,101954.59
2022-10-12T21:04:28.371Z,101967.72
2022-10-12T21:06:54.891Z,101956.59
2022-10-12T21:09:21.505Z,101955.06
2022-10-12T21:11:48.032Z,101950.06
2022-10-12T21:14:14.602Z,101957.13
2022-10-12T21:16:41.734Z,101952.84
2022-10-12T21:19:08.421Z,101957.84
2022-10-12T21:21:34.900Z,101961.75
2022-10-12T21:24:01.750Z,101958.19
2022-10-12T21:26:30.702Z,101955.00
2022-10-12T21:28:58.794Z,101959.19
2022-10-12T21:31:30.979Z,101945.34
2022-10-12T21:34:01.254Z,101958.28
2022-10-12T21:36:29.376Z,101956.13
2022-10-12T21:38:56.450Z,101958.81
2022-10-12T21:41:25.812Z,101952.22
2022-10-12T21:43:53.283Z,101951.31
2022-10-12T21:46:23.386Z,101948.53
2022-10-12T21:48:50.429Z,101934.69
2022-10-12T21:51:18.091Z,101934.25
2022-10-12T21:53:44.804Z,101935.78
2022-10-12T21:56:16.231Z,101946.31
2022-10-12T21:58:42.741Z,101944.72
2022-10-12T22:01:14.663Z,101936.84
2022-10-12T22:03:42.696Z,101942.91
2022-10-12T22:06:18.305Z,101939.81
2022-10-12T22:08:49.254Z,101933.09
2022-10-12T22:11:15.742Z,101941.78
2022-10-12T22:13:42.449Z,101928.53
2022-10-12T22:16:12.840Z,101937.56
2022-10-12T22:18:40.449Z,101946.94
2022-10-12T22:21:10.798Z,101939.97
2022-10-12T22:23:37.257Z,101942.44
2022-10-12T22:26:16.349Z,101948.63
2022-10-12T22:28:43.030Z,101942.81
2022-10-12T22:31:11.649Z,101933.69
2022-10-12T22:33:38.339Z,101943.44
2022-10-12T22:36:07.370Z,101939.25
2022-10-12T22:38:34.984Z,101940.03
2022-10-12T22:41:16.452Z,101936.38
2022-10-12T22:43:43.019Z,101938.06
2022-10-12T22:46:09.825Z,101943.78
2022-10-12T22:48:37.348Z,101932.41
2022-10-12T22:51:05.823Z,101937.88
2022-10-12T22:53:33.280Z,101931.69
2022-10-12T22:56:02.445Z,101919.63
2022-10-12T22:58:29.325Z,101918.91
2022-10-12T23:01:22.214Z,101920.69
2022-10-12T23:03:48.966Z,101922.84
2022-10-12T23:06:17.669Z,101918.91
2022-10-12T23:08:44.613Z,101917.22
2022-10-12T23:11:18.016Z,101921.81
2022-10-12T23:13:45.081Z,101919.03
2022-10-12T23:16:13.997Z,101928.16
2022-10-12T23:18:40.709Z,101917.88
2022-10-12T23:21:09.848Z,101916.59
2022-10-12T23:23:38.096Z,101913.34
2022-10-12T23:26:10.977Z,101910.59
2022-10-12T23:28:37.807Z,101914.00
2022-10-12T23:31:05.882Z,101914.59
2022-10-12T23:33:33.177Z,101909.53
2022-10-12T23:36:03.192Z,101906.44
2022-10-12T23:38:31.680Z,101904.56
2022-10-12T23:40:58.212Z,101897.91
2022-10-12T23:43:26.088Z,101900.66
2022-10-12T23:45:53.663Z,101885.72
2022-10-12T23:48:20.432Z,101879.28
2022-10-12T23:50:47.078Z,101887.03
2022-10-12T23:53:14.305Z,101882.03
2022-10-12T23:55:40.775Z,101876.25
2022-10-12T23:58:07.322Z,101876.19
